Time;durP1;ratioP1;P1;durP2;ratioP2;P2;SDS_P1;SDS_P2;PMS_P1;PMS_P2;Temp;Humidity;BMP_temperature;BMP_pressure;BME280_temperature;BME280_humidity;BME280_pressure;Samples;Min_cycle;Max_cycle;Signal;HPM_P1;HPM_P2
2021/05/15 00:01:23;;;;;;;10.23;7.03;;;10.70;99.90;;;;;;5032806;28;20189;-80
2021/05/15 00:03:48;;;;;;;9.47;7.00;;;10.70;99.90;;;;;;5014939;28;20199;-79
2021/05/15 00:06:14;;;;;;;11.67;7.53;;;10.70;99.90;;;;;;5015357;28;20178;-80
2021/05/15 00:08:40;;;;;;;11.53;7.83;;;10.90;99.90;;;;;;5015350;28;20699;-80
2021/05/15 00:11:06;;;;;;;12.67;8.17;;;10.90;99.90;;;;;;5031418;28;20208;-80
2021/05/15 00:13:32;;;;;;;13.80;8.13;;;11.10;99.90;;;;;;5032005;28;20208;-80
2021/05/15 00:15:57;;;;;;;11.27;7.63;;;11.00;99.90;;;;;;5031912;28;20205;-80
2021/05/15 00:18:23;;;;;;;12.87;8.13;;;10.90;99.90;;;;;;5015887;28;20188;-79
2021/05/15 00:20:49;;;;;;;15.43;7.80;;;10.80;99.90;;;;;;5015431;28;20178;-80
2021/05/15 00:23:14;;;;;;;11.63;7.30;;;10.90;99.90;;;;;;5032285;28;20233;-80
2021/05/15 00:25:40;;;;;;;9.63;7.53;;;10.70;99.90;;;;;;5032226;28;20629;-80
2021/05/15 00:28:05;;;;;;;11.47;7.70;;;10.80;99.90;;;;;;5015738;28;20182;-80
2021/05/15 00:30:31;;;;;;;11.57;7.30;;;10.70;99.90;;;;;;5013927;28;20283;-80
2021/05/15 00:32:57;;;;;;;11.03;7.17;;;10.70;99.90;;;;;;5013712;28;20233;-80
2021/05/15 00:35:22;;;;;;;11.57;7.27;;;10.80;99.90;;;;;;5013827;28;20206;-80
2021/05/15 00:37:48;;;;;;;11.20;7.30;;;10.70;99.90;;;;;;5030863;28;20216;-80
2021/05/15 00:40:14;;;;;;;11.57;7.83;;;10.70;99.90;;;;;;5014177;28;20177;-80
2021/05/15 00:42:39;;;;;;;10.17;6.90;;;10.60;99.90;;;;;;5014012;28;20664;-80
2021/05/15 00:45:07;;;;;;;10.37;7.37;;;10.60;99.90;;;;;;5030715;28;20272;-80
2021/05/15 00:47:32;;;;;;;10.30;8.10;;;10.50;99.90;;;;;;5030922;28;20192;-80
2021/05/15 00:49:58;;;;;;;12.27;7.90;;;10.60;99.90;;;;;;5010295;28;588982;-80
2021/05/15 00:52:27;;;;;;;13.80;7.87;;;10.60;99.90;;;;;;5030771;28;20810;-80
2021/05/15 00:54:52;;;;;;;11.07;7.83;;;10.60;99.90;;;;;;5030826;28;20216;-80
2021/05/15 00:57:18;;;;;;;12.73;7.27;;;10.60;99.90;;;;;;5031010;28;20181;-80
2021/05/15 00:59:44;;;;;;;11.77;7.60;;;10.60;99.90;;;;;;5014498;28;20670;-80
2021/05/15 01:02:10;;;;;;;11.93;8.07;;;10.60;99.90;;;;;;5030817;28;20711;-80
2021/05/15 01:04:36;;;;;;;10.93;7.60;;;10.60;99.90;;;;;;5014517;28;20236;-80
2021/05/15 01:07:02;;;;;;;10.97;7.67;;;10.60;99.90;;;;;;5031056;28;20211;-80
2021/05/15 01:09:30;;;;;;;11.23;7.50;;;10.70;99.90;;;;;;5030894;28;20604;-81
2021/05/15 01:11:55;;;;;;;12.67;7.77;;;10.70;99.90;;;;;;5014145;28;20187;-80
2021/05/15 01:14:21;;;;;;;11.73;7.23;;;10.60;99.90;;;;;;5014103;28;20362;-80
2021/05/15 01:16:49;;;;;;;10.43;7.50;;;10.70;99.90;;;;;;5030512;28;20225;-80
2021/05/15 01:19:15;;;;;;;10.83;7.10;;;10.70;99.90;;;;;;5030997;28;20514;-80
2021/05/15 01:21:41;;;;;;;10.43;7.43;;;10.70;99.90;;;;;;5030622;28;20197;-80
2021/05/15 01:24:07;;;;;;;11.30;7.80;;;10.60;99.90;;;;;;5014158;28;20707;-80
2021/05/15 01:26:32;;;;;;;9.63;7.33;;;10.60;99.90;;;;;;5014375;28;20182;-80
2021/05/15 01:29:00;;;;;;;10.00;7.03;;;10.60;99.90;;;;;;5030887;28;20207;-80
2021/05/15 01:31:26;;;;;;;12.23;6.90;;;10.60;99.90;;;;;;5014457;28;20178;-80
2021/05/15 01:33:51;;;;;;;10.77;7.07;;;10.60;99.90;;;;;;5030623;28;20223;-80
2021/05/15 01:36:17;;;;;;;11.20;7.97;;;10.50;99.90;;;;;;5031008;28;20594;-80
2021/05/15 01:38:43;;;;;;;9.83;7.57;;;10.40;99.90;;;;;;5014487;28;20188;-80
2021/05/15 01:41:11;;;;;;;10.67;7.17;;;10.40;99.90;;;;;;5031830;28;20195;-79
2021/05/15 01:43:36;;;;;;;9.43;7.40;;;10.30;99.90;;;;;;5033833;28;20189;-79
2021/05/15 01:46:03;;;;;;;10.60;7.07;;;10.30;99.90;;;;;;5035085;28;20690;-79
2021/05/15 01:48:29;;;;;;;10.30;7.53;;;10.30;99.90;;;;;;5035053;28;20632;-79
2021/05/15 01:51:02;;;;;;;10.93;7.27;;;10.30;99.90;;;;;;5035094;28;20277;-79
2021/05/15 01:53:28;;;;;;;11.90;7.30;;;10.10;99.90;;;;;;5035038;28;20206;-79
2021/05/15 01:55:54;;;;;;;10.37;7.40;;;10.10;99.90;;;;;;5035227;28;20205;-79
2021/05/15 01:58:20;;;;;;;12.30;7.93;;;10.10;99.90;;;;;;5035012;28;20177;-79
2021/05/15 02:00:46;;;;;;;11.97;7.53;;;10.10;99.90;;;;;;5034941;28;20235;-79
2021/05/15 02:03:11;;;;;;;11.10;7.50;;;10.10;99.90;;;;;;5017875;28;20288;-78
2021/05/15 02:05:37;;;;;;;11.77;7.73;;;10.10;99.90;;;;;;5034269;28;20244;-79
2021/05/15 02:08:03;;;;;;;11.57;7.87;;;10.10;99.90;;;;;;5034357;28;20184;-78
2021/05/15 02:10:29;;;;;;;11.57;7.70;;;10.10;99.90;;;;;;5017941;28;20181;-79
2021/05/15 02:12:54;;;;;;;13.00;7.80;;;10.10;99.90;;;;;;5034411;28;20253;-78
2021/05/15 02:15:20;;;;;;;10.47;7.13;;;10.10;99.90;;;;;;5034559;28;20691;-78
2021/05/15 02:17:45;;;;;;;10.17;7.37;;;10.10;99.90;;;;;;5017616;28;20636;-78
2021/05/15 02:20:12;;;;;;;10.47;7.17;;;10.10;99.90;;;;;;5034211;28;20602;-79
2021/05/15 02:22:37;;;;;;;9.63;6.90;;;10.00;99.90;;;;;;5034337;28;20697;-78
2021/05/15 02:25:03;;;;;;;9.33;7.20;;;10.10;99.90;;;;;;5033996;28;20188;-79
2021/05/15 02:27:29;;;;;;;11.17;7.33;;;10.00;99.90;;;;;;5034832;28;20179;-79
2021/05/15 02:29:54;;;;;;;11.30;7.40;;;10.00;99.90;;;;;;5034877;28;20176;-79
2021/05/15 02:32:20;;;;;;;10.77;6.67;;;10.00;99.90;;;;;;5018154;28;20639;-79
2021/05/15 02:34:45;;;;;;;10.20;6.80;;;10.00;99.90;;;;;;5034400;28;20699;-79
2021/05/15 02:37:11;;;;;;;11.13;6.63;;;10.00;99.90;;;;;;5034308;28;20177;-79
2021/05/15 02:39:37;;;;;;;10.93;7.00;;;10.00;99.90;;;;;;5034888;28;20173;-78
2021/05/15 02:42:02;;;;;;;10.63;7.37;;;9.90;99.90;;;;;;5017944;28;20176;-79
2021/05/15 02:44:28;;;;;;;9.77;6.63;;;9.90;99.90;;;;;;5017882;28;20197;-78
2021/05/15 02:46:53;;;;;;;10.67;7.37;;;9.90;99.90;;;;;;5018336;28;20181;-79
2021/05/15 02:49:19;;;;;;;9.03;7.07;;;9.80;99.90;;;;;;5034624;28;20675;-79
2021/05/15 02:51:45;;;;;;;9.23;7.00;;;9.80;99.90;;;;;;5033505;28;20236;-79
2021/05/15 02:54:10;;;;;;;9.20;7.27;;;9.80;99.90;;;;;;5015468;28;20581;-79
2021/05/15 02:56:36;;;;;;;9.20;6.83;;;9.80;99.90;;;;;;5033981;28;20688;-79
2021/05/15 02:59:01;;;;;;;8.67;6.90;;;9.70;99.90;;;;;;5017518;28;20216;-79
2021/05/15 03:01:27;;;;;;;9.40;7.23;;;9.70;99.90;;;;;;5018627;28;20602;-79
2021/05/15 03:03:52;;;;;;;11.50;7.10;;;9.80;99.90;;;;;;5017746;28;20203;-79
2021/05/15 03:06:18;;;;;;;10.67;6.80;;;9.70;99.90;;;;;;5034217;28;20664;-79
2021/05/15 03:08:44;;;;;;;9.90;7.00;;;9.80;99.90;;;;;;5018203;28;20641;-79
2021/05/15 03:11:10;;;;;;;8.53;6.40;;;9.70;99.90;;;;;;5034701;28;20172;-79
2021/05/15 03:13:35;;;;;;;9.70;6.60;;;9.70;99.90;;;;;;5033708;28;20207;-79
2021/05/15 03:16:01;;;;;;;10.43;6.80;;;9.80;99.90;;;;;;5016423;28;20411;-79
2021/05/15 03:18:26;;;;;;;10.47;7.37;;;9.90;99.90;;;;;;5033105;28;20168;-79
2021/05/15 03:20:52;;;;;;;8.13;6.57;;;10.00;99.90;;;;;;5016631;28;20185;-79
2021/05/15 03:23:17;;;;;;;8.63;5.97;;;9.90;99.90;;;;;;5033009;28;20192;-79
2021/05/15 03:25:43;;;;;;;8.23;6.50;;;9.90;99.90;;;;;;5016933;28;20171;-79
2021/05/15 03:28:08;;;;;;;10.80;6.93;;;9.90;99.90;;;;;;5032936;28;20539;-79
2021/05/15 03:30:34;;;;;;;9.03;6.67;;;9.90;99.90;;;;;;5032907;28;20666;-79
2021/05/15 03:32:59;;;;;;;10.47;7.50;;;9.90;99.90;;;;;;5016205;28;20222;-78
2021/05/15 03:35:26;;;;;;;9.17;6.50;;;9.90;99.90;;;;;;5016120;28;20205;-78
2021/05/15 03:37:52;;;;;;;8.47;5.97;;;10.00;99.90;;;;;;5016321;28;20273;-78
2021/05/15 03:40:18;;;;;;;8.43;6.20;;;9.90;99.90;;;;;;5032069;28;20256;-78
2021/05/15 03:42:43;;;;;;;9.83;6.47;;;10.00;99.90;;;;;;5031582;28;20259;-79
2021/05/15 03:45:09;;;;;;;10.33;7.00;;;10.00;99.90;;;;;;5015208;28;20196;-78
2021/05/15 03:47:35;;;;;;;9.07;6.33;;;10.00;99.90;;;;;;5015321;28;20183;-78
2021/05/15 03:50:01;;;;;;;8.97;6.13;;;10.00;99.90;;;;;;5031699;28;20196;-78
2021/05/15 03:52:27;;;;;;;10.50;6.77;;;10.00;99.90;;;;;;5014988;28;20175;-78
2021/05/15 03:54:52;;;;;;;8.77;6.00;;;10.00;99.90;;;;;;5031514;28;20201;-78
2021/05/15 03:57:18;;;;;;;9.97;6.63;;;10.00;99.90;;;;;;5031558;28;20164;-78
2021/05/15 03:59:43;;;;;;;10.20;6.67;;;10.00;99.90;;;;;;5031484;28;20250;-78
2021/05/15 04:02:09;;;;;;;8.50;6.20;;;10.00;99.90;;;;;;5031683;28;20256;-78
2021/05/15 04:04:37;;;;;;;9.47;6.63;;;10.00;99.90;;;;;;5014719;28;20201;-77
2021/05/15 04:07:02;;;;;;;10.53;7.23;;;10.00;99.90;;;;;;5029273;28;20855;-78
2021/05/15 04:09:28;;;;;;;8.10;5.87;;;10.10;99.90;;;;;;4997958;28;20188;-79
2021/05/15 04:11:54;;;;;;;8.20;6.03;;;10.10;99.90;;;;;;5032526;28;20556;-78
2021/05/15 04:14:28;;;;;;;8.90;6.00;;;10.00;99.90;;;;;;5014544;28;20692;-78
2021/05/15 04:19:26;;;;;;;9.27;5.93;;;10.00;99.90;;;;;;5015732;28;20177;-78
2021/05/15 04:21:52;;;;;;;8.90;6.43;;;10.00;99.90;;;;;;5031299;28;20173;-78
2021/05/15 04:24:17;;;;;;;7.03;5.53;;;10.10;99.90;;;;;;5014559;28;20250;-78
2021/05/15 04:26:43;;;;;;;9.70;6.07;;;10.10;99.90;;;;;;5014819;28;20196;-79
2021/05/15 04:29:08;;;;;;;8.57;5.90;;;10.10;99.90;;;;;;5030967;28;20646;-79
2021/05/15 04:31:34;;;;;;;8.50;6.33;;;10.10;99.90;;;;;;5014744;28;20201;-78
2021/05/15 04:33:59;;;;;;;8.60;6.50;;;10.10;99.90;;;;;;5030751;28;20199;-78
2021/05/15 04:36:25;;;;;;;7.73;5.23;;;10.10;99.90;;;;;;5030811;28;20168;-78
2021/05/15 04:38:52;;;;;;;7.70;5.50;;;10.10;99.90;;;;;;5030841;28;20555;-79
2021/05/15 04:41:19;;;;;;;7.23;5.80;;;10.20;99.90;;;;;;5014729;28;20181;-78
2021/05/15 04:43:45;;;;;;;7.33;5.50;;;10.20;99.90;;;;;;5031768;28;20186;-78
2021/05/15 04:46:10;;;;;;;8.40;5.33;;;10.30;99.90;;;;;;5030907;28;20177;-78
2021/05/15 04:48:38;;;;;;;6.97;5.30;;;10.30;99.90;;;;;;5014272;28;20183;-77
2021/05/15 04:51:03;;;;;;;7.50;5.40;;;10.20;99.90;;;;;;5014422;28;20270;-78
2021/05/15 04:53:30;;;;;;;8.80;6.03;;;10.20;99.90;;;;;;5013815;28;20214;-78
2021/05/15 04:55:55;;;;;;;6.13;4.93;;;10.20;99.90;;;;;;5014239;28;20202;-78
2021/05/15 04:58:21;;;;;;;7.13;5.00;;;10.30;99.90;;;;;;5014365;28;20183;-78
2021/05/15 05:00:47;;;;;;;7.67;4.73;;;10.30;99.90;;;;;;5014371;28;20628;-78
2021/05/15 05:03:16;;;;;;;6.83;4.47;;;10.30;99.90;;;;;;5013671;28;20784;-78
2021/05/15 05:05:42;;;;;;;6.87;4.33;;;10.30;99.90;;;;;;5030705;28;20670;-78
2021/05/15 05:08:07;;;;;;;9.07;5.27;;;10.30;99.90;;;;;;5030361;28;20257;-78
2021/05/15 05:10:33;;;;;;;7.27;5.30;;;10.40;99.90;;;;;;5014235;28;20195;-78
2021/05/15 05:13:03;;;;;;;5.83;4.00;;;10.50;99.90;;;;;;5013843;28;20204;-78
2021/05/15 05:15:28;;;;;;;6.40;4.40;;;10.50;99.90;;;;;;5013890;28;20216;-78
2021/05/15 05:17:54;;;;;;;6.27;4.50;;;10.50;99.90;;;;;;5016122;28;20232;-78
2021/05/15 05:20:19;;;;;;;6.10;4.60;;;10.50;99.90;;;;;;5034028;28;20224;-78
2021/05/15 05:22:45;;;;;;;4.83;4.20;;;10.50;99.90;;;;;;5001193;28;20463;-78
2021/05/15 05:25:12;;;;;;;5.50;4.30;;;10.60;99.90;;;;;;5018142;28;20182;-78
2021/05/15 05:27:45;;;;;;;5.57;3.97;;;10.60;99.90;;;;;;5001999;28;20243;-78
2021/05/15 05:30:11;;;;;;;6.77;4.77;;;10.60;99.90;;;;;;5019016;28;20530;-78
2021/05/15 05:32:36;;;;;;;6.67;4.30;;;10.60;99.90;;;;;;5018052;28;20277;-78
2021/05/15 05:35:02;;;;;;;5.07;3.97;;;10.60;99.90;;;;;;5017472;28;20643;-78
2021/05/15 05:37:28;;;;;;;5.97;4.00;;;10.70;99.90;;;;;;5017787;28;20190;-79
2021/05/15 05:39:54;;;;;;;7.67;3.70;;;10.70;99.90;;;;;;5018014;28;20203;-78
2021/05/15 05:42:20;;;;;;;4.43;3.73;;;10.80;99.90;;;;;;5017778;28;20196;-77
2021/05/15 05:44:45;;;;;;;4.53;3.37;;;10.90;99.90;;;;;;5017489;28;20236;-78
2021/05/15 05:47:12;;;;;;;5.10;3.40;;;10.90;99.90;;;;;;5017557;28;20672;-77
2021/05/15 05:49:37;;;;;;;6.03;3.80;;;10.80;99.90;;;;;;5017523;28;20209;-78
2021/05/15 05:52:03;;;;;;;7.13;3.67;;;10.80;99.90;;;;;;5000873;28;20664;-78
2021/05/15 05:54:29;;;;;;;4.77;3.63;;;10.90;99.90;;;;;;5017107;28;20216;-78
2021/05/15 05:56:55;;;;;;;5.77;3.50;;;10.80;99.90;;;;;;5017403;28;20259;-78
2021/05/15 05:59:20;;;;;;;6.20;4.00;;;10.80;99.90;;;;;;4997796;28;20211;-79
2021/05/15 06:01:46;;;;;;;4.43;3.27;;;10.90;99.90;;;;;;5018847;28;20185;-78
2021/05/15 06:04:11;;;;;;;3.40;2.90;;;10.90;99.90;;;;;;5014774;28;20199;-79
2021/05/15 06:06:37;;;;;;;3.70;3.03;;;11.00;99.90;;;;;;5015193;28;20189;-78
2021/05/15 06:09:04;;;;;;;4.53;3.37;;;11.00;99.90;;;;;;4981361;28;20179;-78
2021/05/15 06:11:29;;;;;;;4.33;3.00;;;11.00;99.90;;;;;;4981231;28;20189;-78
2021/05/15 06:13:55;;;;;;;3.80;3.30;;;11.10;99.90;;;;;;4980654;28;20194;-78
2021/05/15 06:16:20;;;;;;;4.03;3.00;;;11.20;99.90;;;;;;4997716;28;20218;-78
2021/05/15 06:18:46;;;;;;;3.80;3.20;;;11.10;99.90;;;;;;5013888;28;20257;-78
2021/05/15 06:21:12;;;;;;;4.57;3.43;;;11.30;99.90;;;;;;5013803;28;20668;-77
2021/05/15 06:23:37;;;;;;;3.33;2.80;;;11.30;99.90;;;;;;5006836;28;20209;-78
2021/05/15 06:26:08;;;;;;;3.17;2.47;;;11.40;99.90;;;;;;5001700;28;20202;-75
2021/05/15 06:28:34;;;;;;;4.10;2.80;;;11.40;99.90;;;;;;5020035;28;20186;-75
2021/05/15 06:31:01;;;;;;;4.13;3.20;;;11.50;99.90;;;;;;5026282;28;20268;-74
2021/05/15 06:33:26;;;;;;;3.23;2.67;;;11.60;99.90;;;;;;5015916;28;20260;-77
2021/05/15 06:35:52;;;;;;;3.17;2.60;;;11.60;99.90;;;;;;5025425;28;20218;-77
2021/05/15 06:38:18;;;;;;;3.57;2.87;;;11.70;99.90;;;;;;5038437;28;20185;-77
2021/05/15 06:40:44;;;;;;;4.70;3.30;;;11.70;99.90;;;;;;5004484;28;20174;-79
2021/05/15 06:43:09;;;;;;;4.00;2.50;;;11.70;99.90;;;;;;5002305;28;20195;-79
2021/05/15 06:45:35;;;;;;;5.83;3.10;;;11.70;99.90;;;;;;5001666;28;20186;-77
2021/05/15 06:48:00;;;;;;;3.73;2.80;;;11.70;99.90;;;;;;5014638;28;20214;-77
2021/05/15 06:50:26;;;;;;;3.33;2.57;;;11.60;99.90;;;;;;4999928;28;20236;-76
2021/05/15 06:52:51;;;;;;;4.93;2.63;;;11.70;99.90;;;;;;4997856;28;20199;-78
2021/05/15 06:55:17;;;;;;;3.90;2.83;;;11.70;99.90;;;;;;5029400;28;20201;-79
2021/05/15 06:57:43;;;;;;;3.07;2.37;;;11.80;99.90;;;;;;5013397;28;20647;-80
2021/05/15 07:00:09;;;;;;;4.00;2.50;;;11.80;99.90;;;;;;4996809;28;20178;-78
2021/05/15 07:02:34;;;;;;;2.93;2.60;;;11.80;99.90;;;;;;5015161;28;20607;-80
2021/05/15 07:05:00;;;;;;;3.03;2.57;;;11.80;99.90;;;;;;5016496;28;20190;-80
2021/05/15 07:07:26;;;;;;;2.97;2.67;;;11.80;99.90;;;;;;5016221;28;20182;-79
2021/05/15 07:09:52;;;;;;;2.87;2.37;;;11.90;99.90;;;;;;5015849;28;20208;-78
2021/05/15 07:12:17;;;;;;;3.30;2.33;;;11.80;99.90;;;;;;5032521;28;20247;-79
2021/05/15 07:14:44;;;;;;;3.10;2.60;;;11.90;99.90;;;;;;5015808;28;20583;-77
2021/05/15 07:17:09;;;;;;;3.23;2.10;;;11.80;99.90;;;;;;5012633;28;20225;-73
2021/05/15 07:19:35;;;;;;;2.40;1.97;;;11.70;99.90;;;;;;5030894;28;20178;-73
2021/05/15 07:22:00;;;;;;;2.80;2.20;;;11.60;99.90;;;;;;5031133;28;20642;-72
2021/05/15 07:24:26;;;;;;;3.47;1.90;;;11.60;99.90;;;;;;5030938;28;20696;-73
2021/05/15 07:26:51;;;;;;;3.27;1.40;;;11.60;99.90;;;;;;5026469;28;20180;-75
2021/05/15 07:29:17;;;;;;;2.60;2.00;;;11.50;99.90;;;;;;5032202;28;20185;-74
2021/05/15 07:31:42;;;;;;;2.10;1.80;;;11.50;99.90;;;;;;5031648;28;20185;-73
2021/05/15 07:34:08;;;;;;;2.40;2.00;;;11.40;99.90;;;;;;5032307;28;20220;-74
2021/05/15 07:36:34;;;;;;;2.57;1.77;;;11.40;99.90;;;;;;5030935;28;20190;-73
2021/05/15 07:38:59;;;;;;;3.20;1.93;;;11.50;99.90;;;;;;5032233;28;20599;-74
2021/05/15 07:41:27;;;;;;;2.70;2.23;;;11.60;99.90;;;;;;5052260;23;20233;-82
2021/05/15 07:43:55;;;;;;;2.43;2.10;;;11.60;99.90;;;;;;5001477;28;20186;-82
2021/05/15 07:46:21;;;;;;;2.60;2.00;;;11.70;99.90;;;;;;4995374;28;20715;-80
2021/05/15 07:48:47;;;;;;;2.43;1.87;;;11.90;99.90;;;;;;5014754;28;20179;-82
2021/05/15 07:51:15;;;;;;;3.17;2.10;;;12.40;99.90;;;;;;5004673;28;20685;-82
2021/05/15 07:53:41;;;;;;;2.23;1.90;;;13.30;99.90;;;;;;5016744;28;20733;-82
2021/05/15 07:56:06;;;;;;;2.97;2.13;;;13.70;99.90;;;;;;5017335;28;20214;-85
2021/05/15 07:58:32;;;;;;;2.90;2.33;;;13.80;99.90;;;;;;5002068;28;20175;-82
2021/05/15 08:00:58;;;;;;;4.20;2.30;;;13.60;99.90;;;;;;5001807;28;20190;-83
2021/05/15 08:03:24;;;;;;;4.43;2.20;;;13.70;99.90;;;;;;5001349;28;20175;-83
2021/05/15 08:05:49;;;;;;;3.50;2.73;;;13.60;99.90;;;;;;5001069;28;20286;-82
2021/05/15 08:08:19;;;;;;;3.70;2.90;;;13.40;99.90;;;;;;5001615;28;20179;-84
2021/05/15 08:10:46;;;;;;;5.37;3.17;;;13.50;99.90;;;;;;5017531;28;20212;-82
2021/05/15 08:13:11;;;;;;;4.23;3.40;;;13.50;99.90;;;;;;5001319;28;20254;-82
2021/05/15 08:15:39;;;;;;;5.03;3.77;;;13.60;99.90;;;;;;4997816;28;20238;-81
2021/05/15 08:18:07;;;;;;;5.57;3.80;;;13.60;99.90;;;;;;4992268;28;20665;-83
2021/05/15 08:20:33;;;;;;;5.20;3.87;;;13.70;99.90;;;;;;4999765;28;20297;-84
2021/05/15 08:22:59;;;;;;;4.97;4.27;;;13.90;99.90;;;;;;5001629;28;20218;-84
2021/05/15 08:25:25;;;;;;;4.67;4.03;;;13.80;99.90;;;;;;5017754;28;20175;-85
2021/05/15 08:27:56;;;;;;;7.73;5.37;;;13.70;99.90;;;;;;5001826;28;20183;-82
2021/05/15 08:30:22;;;;;;;6.80;4.67;;;13.80;99.90;;;;;;5003656;28;20570;-85
2021/05/15 08:32:52;;;;;;;8.00;4.87;;;14.10;99.90;;;;;;4999985;28;20175;-83
2021/05/15 08:35:18;;;;;;;5.83;5.00;;;14.20;99.90;;;;;;5033230;28;20225;-84
2021/05/15 08:37:43;;;;;;;7.43;5.57;;;14.50;99.90;;;;;;5017031;28;20175;-81
2021/05/15 08:40:10;;;;;;;8.07;5.47;;;14.80;99.90;;;;;;5015481;28;20513;-81
2021/05/15 08:42:36;;;;;;;7.10;5.50;;;15.00;99.90;;;;;;5037413;28;20668;-83
2021/05/15 08:45:05;;;;;;;7.17;5.63;;;14.90;99.90;;;;;;5039676;28;20666;-82
2021/05/15 08:47:32;;;;;;;6.73;5.60;;;14.60;99.90;;;;;;5004349;28;20193;-82
2021/05/15 08:50:00;;;;;;;7.63;5.27;;;14.40;99.90;;;;;;5021544;28;20198;-82
2021/05/15 08:52:26;;;;;;;5.90;4.70;;;14.20;99.90;;;;;;5006839;28;20197;-83
2021/05/15 08:54:53;;;;;;;7.87;4.53;;;14.50;99.90;;;;;;5026189;28;20187;-82
2021/05/15 08:57:19;;;;;;;5.90;4.53;;;14.50;99.90;;;;;;5025554;28;20256;-82
2021/05/15 08:59:46;;;;;;;6.23;4.70;;;14.60;99.90;;;;;;5006822;28;20175;-82
2021/05/15 09:02:12;;;;;;;7.13;5.00;;;14.60;99.90;;;;;;5006342;28;20650;-82
2021/05/15 09:04:37;;;;;;;8.33;5.23;;;14.50;99.90;;;;;;5021448;28;20233;-82
2021/05/15 09:07:03;;;;;;;9.47;5.93;;;14.20;99.90;;;;;;5019417;28;20183;-82
2021/05/15 09:09:28;;;;;;;9.40;6.10;;;13.90;99.90;;;;;;5003384;28;20179;-84
2021/05/15 09:11:54;;;;;;;11.47;6.60;;;13.70;99.90;;;;;;5019366;28;20175;-82
2021/05/15 09:14:24;;;;;;;10.93;7.27;;;13.70;99.90;;;;;;5017010;28;20178;-84
2021/05/15 09:16:56;;;;;;;10.60;6.53;;;13.70;99.90;;;;;;5002108;28;20236;-83
2021/05/15 09:19:27;;;;;;;11.10;7.63;;;13.70;99.90;;;;;;5018947;28;20539;-84
2021/05/15 09:22:01;;;;;;;11.97;7.60;;;13.60;99.90;;;;;;5002972;28;20644;-83
2021/05/15 09:24:33;;;;;;;13.33;8.10;;;13.70;99.90;;;;;;5017631;28;20178;-82
2021/05/15 09:27:01;;;;;;;11.73;7.63;;;13.80;99.90;;;;;;5019552;28;20189;-83
2021/05/15 09:29:39;;;;;;;16.73;8.37;;;13.90;99.90;;;;;;5038502;28;20190;-83
2021/05/15 09:32:07;;;;;;;12.70;8.40;;;14.00;99.90;;;;;;5022305;28;20179;-83
2021/05/15 09:34:46;;;;;;;14.27;9.10;;;14.30;99.90;;;;;;5021821;28;20199;-83
2021/05/15 09:37:12;;;;;;;12.10;8.90;;;14.50;99.90;;;;;;5006352;28;20258;-81
2021/05/15 09:39:37;;;;;;;15.10;9.80;;;14.70;99.90;;;;;;5020628;28;20193;-82
2021/05/15 09:42:04;;;;;;;13.00;9.60;;;14.60;99.90;;;;;;5018571;28;20187;-81
2021/05/15 09:44:33;;;;;;;16.00;9.23;;;14.50;99.90;;;;;;5017313;28;20179;-80
2021/05/15 09:46:59;;;;;;;14.60;9.50;;;14.40;99.90;;;;;;5033563;28;20229;-81
2021/05/15 09:49:26;;;;;;;13.67;9.13;;;14.40;99.90;;;;;;5015080;28;20188;-82
2021/05/15 09:52:00;;;;;;;14.27;8.73;;;14.60;99.90;;;;;;5029115;28;20190;-82
2021/05/15 09:54:31;;;;;;;14.17;9.30;;;14.60;99.90;;;;;;5013840;28;20230;-81
2021/05/15 09:57:02;;;;;;;16.40;8.83;;;14.40;99.90;;;;;;5029359;28;20627;-81
2021/05/15 09:59:32;;;;;;;15.27;10.00;;;14.00;99.90;;;;;;5031289;28;20191;-81
2021/05/15 10:02:21;;;;;;;9.73;5.83;;;13.50;99.90;;;;;;4992758;28;20266;-81
2021/05/15 10:04:53;;;;;;;6.03;4.20;;;12.80;99.90;;;;;;5014818;28;20171;-82
2021/05/15 10:07:21;;;;;;;9.53;5.57;;;12.10;99.90;;;;;;5019932;28;20180;-82
2021/05/15 10:09:47;;;;;;;8.60;5.63;;;11.60;99.90;;;;;;5017917;28;20189;-80
2021/05/15 10:12:13;;;;;;;10.90;6.30;;;11.30;99.90;;;;;;5015334;28;20264;-83
2021/05/15 10:14:38;;;;;;;13.07;7.20;;;11.20;99.90;;;;;;5017360;28;20200;-82
2021/05/15 10:17:04;;;;;;;14.30;7.47;;;11.20;99.90;;;;;;5015045;28;20232;-82
2021/05/15 10:19:29;;;;;;;13.23;8.27;;;11.30;99.90;;;;;;4988503;28;20331;-82
2021/05/15 10:21:55;;;;;;;12.90;8.30;;;11.20;99.90;;;;;;5018539;28;20174;-83
2021/05/15 10:24:26;;;;;;;14.27;8.90;;;11.20;99.90;;;;;;4992116;28;20185;-83
2021/05/15 10:27:12;;;;;;;15.27;8.47;;;11.30;99.90;;;;;;5025215;28;20190;-81
2021/05/15 10:29:48;;;;;;;15.90;9.00;;;11.30;99.90;;;;;;5014315;28;20178;-82
2021/05/15 10:32:30;;;;;;;13.90;8.03;;;11.40;99.90;;;;;;5032135;28;20669;-81
2021/05/15 10:35:02;;;;;;;15.27;7.80;;;11.30;99.90;;;;;;5014568;28;20194;-80
2021/05/15 10:37:36;;;;;;;14.23;7.73;;;11.30;99.90;;;;;;5015963;28;20640;-81
2021/05/15 10:40:17;;;;;;;11.27;6.80;;;11.30;99.90;;;;;;5016627;28;20208;-80
2021/05/15 10:42:43;;;;;;;13.60;8.23;;;11.30;99.90;;;;;;5016014;28;20200;-81
2021/05/15 10:45:09;;;;;;;15.87;8.27;;;11.30;99.90;;;;;;5015618;28;20182;-79
2021/05/15 10:47:42;;;;;;;15.07;7.57;;;11.40;99.90;;;;;;5014899;28;20666;-82
2021/05/15 10:50:20;;;;;;;14.60;7.47;;;11.40;99.90;;;;;;5013335;28;20201;-83
2021/05/15 10:56:14;;;;;;;7.27;4.43;;;11.20;99.90;;;;;;5028606;28;20219;-81
2021/05/15 10:58:47;;;;;;;8.87;4.63;;;11.10;99.90;;;;;;5015882;28;20272;-80
2021/05/15 11:01:23;;;;;;;8.17;4.77;;;11.20;99.90;;;;;;5016014;28;20202;-80
2021/05/15 11:03:49;;;;;;;7.20;4.50;;;11.40;99.90;;;;;;5034932;28;20173;-79
2021/05/15 11:06:25;;;;;;;10.37;5.47;;;11.60;99.90;;;;;;5003498;28;20221;-80
2021/05/15 11:09:04;;;;;;;11.40;5.53;;;12.00;99.90;;;;;;5036884;28;20202;-79
2021/05/15 11:11:40;;;;;;;11.07;5.70;;;12.50;99.90;;;;;;5036253;28;20206;-80
2021/05/15 11:14:28;;;;;;;11.17;5.50;;;12.60;99.90;;;;;;5036899;28;20169;-78
2021/05/15 11:17:04;;;;;;;9.83;5.20;;;12.60;99.90;;;;;;5021801;28;20193;-79
2021/05/15 11:19:30;;;;;;;8.80;4.87;;;12.70;99.90;;;;;;5022118;28;20241;-78
2021/05/15 11:21:55;;;;;;;8.97;5.00;;;12.90;99.90;;;;;;5038870;28;20213;-80
2021/05/15 11:24:28;;;;;;;8.73;5.20;;;13.20;99.90;;;;;;5024154;28;20185;-80
2021/05/15 11:26:55;;;;;;;7.67;5.17;;;13.50;99.90;;;;;;5009395;28;20262;-80
2021/05/15 11:29:32;;;;;;;12.20;6.60;;;13.70;99.90;;;;;;5011106;28;20268;-79
2021/05/15 11:32:06;;;;;;;9.53;6.17;;;14.00;99.90;;;;;;5038386;28;20177;-79
2021/05/15 11:34:34;;;;;;;10.93;6.80;;;14.40;99.90;;;;;;5001593;28;20202;-79
2021/05/15 11:37:01;;;;;;;10.60;6.40;;;14.60;99.90;;;;;;5015967;28;20175;-79
2021/05/15 11:39:30;;;;;;;10.50;7.07;;;14.70;99.90;;;;;;5015371;28;20538;-78
2021/05/15 11:42:08;;;;;;;9.43;5.67;;;14.80;99.90;;;;;;5014439;28;20273;-79
2021/05/15 11:44:36;;;;;;;9.80;5.97;;;14.90;99.90;;;;;;5001236;28;20258;-82
2021/05/15 11:47:10;;;;;;;9.70;6.10;;;14.90;99.90;;;;;;5017999;28;20175;-78
2021/05/15 11:49:37;;;;;;;8.03;5.63;;;14.90;99.90;;;;;;4999861;28;20658;-78
2021/05/15 11:52:06;;;;;;;7.53;5.47;;;15.10;99.90;;;;;;5015740;28;20193;-81
2021/05/15 11:54:33;;;;;;;9.93;5.63;;;15.10;99.90;;;;;;5019496;28;20201;-83
2021/05/15 11:57:00;;;;;;;7.87;5.43;;;15.10;99.90;;;;;;5003121;28;20179;-81
2021/05/15 11:59:26;;;;;;;8.00;5.10;;;15.10;99.90;;;;;;5003052;28;20179;-81
2021/05/15 12:01:52;;;;;;;6.47;4.80;;;14.90;99.90;;;;;;5004019;28;20898;-84
2021/05/15 12:04:32;;;;;;;7.40;5.60;;;14.80;99.90;;;;;;5003661;28;20171;-82
2021/05/15 12:07:06;;;;;;;7.47;5.03;;;14.70;99.90;;;;;;5043922;28;20179;-82
2021/05/15 12:09:34;;;;;;;5.60;4.47;;;14.70;99.90;;;;;;5025723;28;20256;-82
2021/05/15 12:12:01;;;;;;;7.47;5.20;;;14.70;99.90;;;;;;5007535;28;20682;-82
2021/05/15 12:14:28;;;;;;;5.10;4.30;;;14.70;99.90;;;;;;5019904;28;20264;-82
2021/05/15 12:16:57;;;;;;;7.50;5.20;;;14.70;99.90;;;;;;5002306;28;20182;-82
2021/05/15 12:19:26;;;;;;;6.10;4.73;;;14.60;99.90;;;;;;5003289;28;20185;-82
2021/05/15 12:22:07;;;;;;;7.10;5.10;;;14.60;99.90;;;;;;5019898;28;20190;-83
2021/05/15 12:24:38;;;;;;;8.20;5.43;;;14.70;99.90;;;;;;5019173;28;20712;-82
2021/05/15 12:27:20;;;;;;;6.53;5.00;;;14.70;99.90;;;;;;5026283;28;20233;-80
2021/05/15 12:29:57;;;;;;;9.03;5.90;;;14.90;99.90;;;;;;5023990;28;20681;-82
2021/05/15 12:32:29;;;;;;;9.63;5.73;;;15.00;99.90;;;;;;5019868;28;20190;-82
2021/05/15 12:35:07;;;;;;;9.30;6.17;;;15.20;99.90;;;;;;5018849;28;20203;-78
2021/05/15 12:37:36;;;;;;;8.60;5.87;;;15.40;99.90;;;;;;5033663;28;20171;-79
2021/05/15 12:40:06;;;;;;;8.93;5.63;;;15.60;99.90;;;;;;5017221;28;20206;-80
2021/05/15 12:42:35;;;;;;;7.23;5.63;;;15.60;99.90;;;;;;5042701;28;20175;-80
2021/05/15 12:45:11;;;;;;;8.50;5.80;;;15.70;99.90;;;;;;5020395;28;20179;-81
2021/05/15 12:47:37;;;;;;;7.83;6.03;;;15.50;99.90;;;;;;5019697;28;20175;-81
2021/05/15 12:50:27;;;;;;;5.37;3.87;;;15.40;99.90;;;;;;5020379;28;20203;-82